Time;durP1;ratioP1;P1;durP2;ratioP2;P2;SDS_P1;SDS_P2;PMS_P1;PMS_P2;Temp;Humidity;BMP_temperature;BMP_pressure;BME280_temperature;BME280_humidity;BME280_pressure;Samples;Min_cycle;Max_cycle;Signal;HPM_P1;HPM_P2
2023/10/10 00:01:02;;;;;;;;;;;16.90;51.40;;;;;;4951006;28;89229;-49
2023/10/10 00:03:31;;;;;;;;;;;16.90;51.40;;;;;;4956066;28;87132;-47
2023/10/10 00:05:58;;;;;;;;;;;16.90;51.30;;;;;;4950462;28;89789;-44
2023/10/10 00:08:34;;;;;;;;;;;16.90;51.40;;;;;;4952463;28;87298;-43
2023/10/10 00:11:00;;;;;;;;;;;16.90;51.40;;;;;;4954021;28;88848;-44
2023/10/10 00:13:26;;;;;;;;;;;16.90;51.40;;;;;;4952838;28;89320;-47
2023/10/10 00:15:55;;;;;;;;;;;16.90;51.40;;;;;;4951163;28;87195;-46
2023/10/10 00:18:21;;;;;;;;;;;16.90;51.40;;;;;;4953134;28;89175;-48
2023/10/10 00:21:06;;;;;;;;;;;16.80;51.40;;;;;;4955615;28;88038;-43
2023/10/10 00:23:38;;;;;;;;;;;16.80;51.40;;;;;;4955105;28;87348;-45
2023/10/10 00:26:05;;;;;;;;;;;16.80;51.40;;;;;;4956907;28;88690;-44
2023/10/10 00:28:33;;;;;;;;;;;16.80;51.40;;;;;;4956307;28;87209;-47
2023/10/10 00:31:03;;;;;;;;;;;16.80;51.40;;;;;;4954053;28;89052;-45
2023/10/10 00:33:31;;;;;;;;;;;16.80;51.50;;;;;;4955165;28;87959;-46
2023/10/10 00:35:57;;;;;;;;;;;16.70;51.40;;;;;;4956465;28;86271;-47
2023/10/10 00:38:29;;;;;;;;;;;16.80;51.50;;;;;;4953581;28;88428;-45
2023/10/10 00:40:57;;;;;;;;;;;16.80;51.50;;;;;;4953933;28;87386;-44
2023/10/10 00:43:24;;;;;;;;;;;16.80;51.50;;;;;;4954590;28;88048;-45
2023/10/10 00:45:53;;;;;;;;;;;16.80;51.50;;;;;;4957161;28;90013;-45
2023/10/10 00:48:22;;;;;;;;;;;16.80;51.50;;;;;;4956417;28;87085;-47
2023/10/10 00:50:51;;;;;;;;;;;16.80;51.50;;;;;;4953512;28;88246;-45
2023/10/10 00:53:21;;;;;;;;;;;16.70;51.50;;;;;;4955192;28;88497;-49
2023/10/10 00:55:55;;;;;;;;;;;16.70;51.50;;;;;;4955673;28;87098;-45
2023/10/10 00:58:22;;;;;;;;;;;16.70;51.60;;;;;;4956313;28;87116;-46
2023/10/10 01:00:50;;;;;;;;;;;16.70;51.60;;;;;;4954375;28;87432;-46
2023/10/10 01:03:22;;;;;;;;;;;16.70;51.60;;;;;;4954449;28;87147;-47
2023/10/10 01:05:55;;;;;;;;;;;16.70;51.60;;;;;;4956529;28;87069;-44
2023/10/10 01:08:20;;;;;;;;;;;16.70;51.60;;;;;;4955607;28;90508;-44
2023/10/10 01:10:48;;;;;;;;;;;16.60;51.70;;;;;;4955433;28;88203;-46
2023/10/10 01:13:14;;;;;;;;;;;16.60;51.60;;;;;;4955021;28;88038;-46
2023/10/10 01:15:43;;;;;;;;;;;16.60;52.10;;;;;;4953930;28;87081;-42
2023/10/10 01:18:13;;;;;;;;;;;16.60;51.70;;;;;;4956375;28;86927;-40
2023/10/10 01:20:49;;;;;;;;;;;16.60;51.70;;;;;;4953476;28;89161;-45
2023/10/10 01:23:17;;;;;;;;;;;16.60;51.80;;;;;;4953468;28;87052;-44
2023/10/10 01:25:44;;;;;;;;;;;16.60;51.80;;;;;;4956579;28;88954;-45
2023/10/10 01:28:33;;;;;;;;;;;16.60;51.80;;;;;;4952271;28;89351;-44
2023/10/10 01:30:59;;;;;;;;;;;16.60;51.80;;;;;;4956060;28;87089;-43
2023/10/10 01:36:00;;;;;;;;;;;16.50;51.70;;;;;;4952619;28;87135;-43
2023/10/10 01:38:45;;;;;;;;;;;16.50;51.90;;;;;;4952409;28;87743;-42
2023/10/10 01:41:22;;;;;;;;;;;16.50;51.90;;;;;;4954979;28;88594;-43
2023/10/10 01:43:53;;;;;;;;;;;16.50;51.80;;;;;;4954273;28;87015;-44
2023/10/10 01:46:27;;;;;;;;;;;16.50;51.90;;;;;;4954678;28;89359;-44
2023/10/10 01:48:56;;;;;;;;;;;16.50;51.90;;;;;;4952162;28;87419;-43
2023/10/10 01:51:25;;;;;;;;;;;16.50;51.90;;;;;;4955416;28;86803;-44
2023/10/10 01:53:55;;;;;;;;;;;16.50;51.80;;;;;;4956994;28;86996;-47
2023/10/10 01:56:22;;;;;;;;;;;16.50;51.80;;;;;;4953037;28;87090;-45
2023/10/10 01:58:53;;;;;;;;;;;16.40;51.80;;;;;;4954632;28;88629;-42
2023/10/10 02:01:19;;;;;;;;;;;16.40;51.90;;;;;;4953095;28;88688;-47
2023/10/10 02:03:46;;;;;;;;;;;16.50;51.80;;;;;;4953740;28;87643;-46
2023/10/10 02:06:24;;;;;;;;;;;16.40;51.80;;;;;;4954691;28;87287;-44
2023/10/10 02:08:52;;;;;;;;;;;16.40;51.70;;;;;;4952759;28;88022;-44
2023/10/10 02:11:21;;;;;;;;;;;16.40;51.80;;;;;;4954055;28;87089;-41
2023/10/10 02:13:47;;;;;;;;;;;16.40;51.80;;;;;;4955075;28;89113;-45
2023/10/10 02:16:15;;;;;;;;;;;16.40;51.80;;;;;;4955291;28;87269;-45
2023/10/10 02:18:44;;;;;;;;;;;16.40;51.80;;;;;;4952254;28;87211;-44
2023/10/10 02:21:16;;;;;;;;;;;16.40;51.90;;;;;;4953808;28;89663;-44
2023/10/10 02:23:46;;;;;;;;;;;16.40;51.90;;;;;;4954310;28;88906;-44
2023/10/10 02:26:20;;;;;;;;;;;16.40;51.90;;;;;;4951761;28;88297;-48
2023/10/10 02:28:48;;;;;;;;;;;16.30;51.90;;;;;;4953232;28;89167;-45
2023/10/10 02:31:16;;;;;;;;;;;16.30;51.90;;;;;;4954319;28;87114;-43
2023/10/10 02:36:40;;;;;;;;;;;16.40;51.90;;;;;;4945262;28;88958;-47
2023/10/10 02:39:41;;;;;;;;;;;16.40;51.90;;;;;;4955490;28;87544;-42
2023/10/10 02:42:03;;;;;;;;;;;16.30;51.90;;;;;;4949974;28;88195;-48
2023/10/10 02:47:00;;;;;;;;;;;16.30;52.50;;;;;;4950830;28;87391;-45
2023/10/10 02:51:55;;;;;;;;;;;16.30;52.00;;;;;;4952767;28;87159;-46
2023/10/10 02:54:44;;;;;;;;;;;16.30;51.90;;;;;;4952898;28;87444;-42
2023/10/10 02:59:51;;;;;;;;;;;16.30;51.90;;;;;;4953243;28;87011;-44
2023/10/10 03:02:23;;;;;;;;;;;16.30;52.50;;;;;;4952384;28;88127;-42
2023/10/10 03:04:53;;;;;;;;;;;16.30;51.90;;;;;;4951950;28;87152;-46
2023/10/10 03:07:28;;;;;;;;;;;16.30;51.90;;;;;;4954434;28;89021;-43
2023/10/10 03:12:50;;;;;;;;;;;16.20;51.90;;;;;;4938211;28;87389;-44
2023/10/10 03:25:45;;;;;;;;;;;16.20;52.10;;;;;;4950543;28;86992;-42
2023/10/10 03:31:10;;;;;;;;;;;16.10;52.00;;;;;;4951593;28;87159;-48
2023/10/10 03:33:37;;;;;;;;;;;16.20;52.00;;;;;;4952556;28;86306;-41
2023/10/10 05:25:13;;;;;;;;;;;15.80;52.50;;;;;;4955670;28;88880;-45
2023/10/10 05:27:41;;;;;;;;;;;15.80;52.50;;;;;;4951951;28;88082;-45
2023/10/10 05:30:23;;;;;;;;;;;15.80;52.50;;;;;;4955375;28;88069;-48
2023/10/10 05:33:01;;;;;;;;;;;15.80;53.10;;;;;;4952578;28;89961;-49
2023/10/10 05:35:57;;;;;;;;;;;15.70;52.50;;;;;;4954023;28;88856;-45
2023/10/10 05:38:23;;;;;;;;;;;15.70;52.50;;;;;;4953571;28;88737;-42
2023/10/10 05:40:48;;;;;;;;;;;15.80;52.50;;;;;;4952463;28;87829;-45
2023/10/10 05:43:19;;;;;;;;;;;15.80;52.50;;;;;;4951657;28;88017;-46
2023/10/10 05:45:45;;;;;;;;;;;15.80;52.50;;;;;;4952477;28;87085;-44
2023/10/10 05:48:11;;;;;;;;;;;15.80;52.60;;;;;;4958028;28;88759;-45
2023/10/10 05:50:37;;;;;;;;;;;15.70;52.50;;;;;;4953338;28;87038;-45
2023/10/10 05:53:06;;;;;;;;;;;15.70;52.50;;;;;;4955480;28;87068;-46
2023/10/10 05:55:38;;;;;;;;;;;15.70;52.50;;;;;;4950920;28;90722;-43
2023/10/10 05:58:04;;;;;;;;;;;15.70;52.60;;;;;;4955565;28;87257;-46
2023/10/10 06:00:36;;;;;;;;;;;15.70;52.60;;;;;;4953415;28;87486;-47
2023/10/10 06:03:07;;;;;;;;;;;15.70;52.60;;;;;;4951123;28;87978;-45
2023/10/10 06:05:33;;;;;;;;;;;15.70;52.60;;;;;;4950990;28;87809;-42
2023/10/10 06:07:59;;;;;;;;;;;15.70;52.60;;;;;;4956666;28;87472;-45
2023/10/10 06:10:31;;;;;;;;;;;15.70;52.70;;;;;;4953894;28;87165;-45
2023/10/10 06:12:57;;;;;;;;;;;15.70;52.70;;;;;;4952947;28;89029;-43
2023/10/10 06:15:23;;;;;;;;;;;15.70;52.70;;;;;;4954498;28;87583;-46
2023/10/10 06:17:49;;;;;;;;;;;15.70;52.70;;;;;;4954850;28;87091;-45
2023/10/10 06:20:21;;;;;;;;;;;15.70;52.70;;;;;;4953117;28;89239;-45
2023/10/10 06:22:47;;;;;;;;;;;15.70;52.80;;;;;;4948048;28;88473;-46
2023/10/10 06:25:17;;;;;;;;;;;15.70;52.70;;;;;;4952560;28;87955;-45
2023/10/10 06:27:46;;;;;;;;;;;15.60;52.80;;;;;;4952330;28;88789;-48
2023/10/10 06:30:17;;;;;;;;;;;15.70;52.80;;;;;;4958562;28;88076;-47
2023/10/10 06:32:43;;;;;;;;;;;15.60;52.80;;;;;;4951072;28;90560;-46
2023/10/10 06:37:44;;;;;;;;;;;15.70;52.80;;;;;;4951857;28;86255;-47
2023/10/10 06:40:10;;;;;;;;;;;15.60;52.80;;;;;;4952390;28;87058;-44
2023/10/10 06:42:37;;;;;;;;;;;15.60;52.90;;;;;;4950084;28;88100;-45
2023/10/10 06:45:20;;;;;;;;;;;15.60;53.00;;;;;;4952973;28;88096;-44
2023/10/10 06:47:50;;;;;;;;;;;15.60;53.10;;;;;;4953826;28;90136;-42
2023/10/10 06:50:21;;;;;;;;;;;15.60;53.00;;;;;;4950919;28;88742;-47
2023/10/10 06:52:53;;;;;;;;;;;15.60;53.00;;;;;;4958646;28;87369;-45
2023/10/10 06:55:36;;;;;;;;;;;15.60;53.60;;;;;;4953276;28;87975;-48
2023/10/10 06:58:02;;;;;;;;;;;15.60;53.10;;;;;;4952606;28;87852;-48
2023/10/10 07:00:38;;;;;;;;;;;15.60;53.10;;;;;;4951883;28;87466;-44
2023/10/10 07:03:04;;;;;;;;;;;15.60;53.00;;;;;;4953459;28;87613;-46
2023/10/10 07:05:33;;;;;;;;;;;15.60;53.00;;;;;;4953480;28;88880;-42
2023/10/10 07:07:59;;;;;;;;;;;15.60;53.10;;;;;;4951715;28;89248;-42
2023/10/10 07:10:26;;;;;;;;;;;15.60;53.10;;;;;;4948101;28;90476;-45
2023/10/10 07:12:54;;;;;;;;;;;15.60;53.10;;;;;;4954576;28;87102;-45
2023/10/10 07:15:22;;;;;;;;;;;15.60;53.10;;;;;;4953731;28;88746;-47
2023/10/10 07:17:49;;;;;;;;;;;15.60;53.10;;;;;;4949753;28;88169;-46
2023/10/10 07:22:47;;;;;;;;;;;15.50;53.10;;;;;;4951686;28;87260;-45
2023/10/10 07:25:31;;;;;;;;;;;15.60;53.20;;;;;;4953864;28;87324;-45
2023/10/10 07:27:57;;;;;;;;;;;15.60;53.20;;;;;;4949194;28;88158;-41
2023/10/10 07:30:33;;;;;;;;;;;15.60;53.10;;;;;;4951791;28;88480;-43
2023/10/10 07:33:01;;;;;;;;;;;15.60;53.80;;;;;;4951431;28;87594;-43
2023/10/10 07:35:28;;;;;;;;;;;15.60;53.20;;;;;;4954330;28;89015;-44
2023/10/10 07:37:58;;;;;;;;;;;15.60;53.10;;;;;;4954301;28;87139;-48
2023/10/10 07:40:30;;;;;;;;;;;15.60;53.10;;;;;;4955644;28;89365;-44
2023/10/10 07:42:59;;;;;;;;;;;15.60;53.20;;;;;;4951803;28;89405;-44
2023/10/10 07:45:33;;;;;;;;;;;15.60;53.20;;;;;;4952774;28;87122;-46
2023/10/10 07:50:34;;;;;;;;;;;15.60;53.40;;;;;;4954448;28;88340;-43
2023/10/10 07:53:05;;;;;;;;;;;15.50;53.40;;;;;;4953747;28;86939;-46
2023/10/10 07:55:51;;;;;;;;;;;15.50;53.40;;;;;;4950501;28;88353;-49
2023/10/10 07:58:16;;;;;;;;;;;15.50;53.40;;;;;;4955791;28;87171;-41
2023/10/10 08:00:44;;;;;;;;;;;15.50;53.40;;;;;;4953390;28;88618;-46
2023/10/10 08:03:19;;;;;;;;;;;15.50;54.10;;;;;;4948648;28;89304;-44
2023/10/10 08:05:48;;;;;;;;;;;15.50;53.60;;;;;;4952892;28;87139;-43
2023/10/10 08:08:15;;;;;;;;;;;15.50;53.50;;;;;;4951281;28;87400;-45
2023/10/10 08:10:44;;;;;;;;;;;15.50;53.60;;;;;;4950013;28;88056;-50
2023/10/10 08:13:12;;;;;;;;;;;15.50;53.60;;;;;;4952344;28;87891;-46
2023/10/10 08:15:56;;;;;;;;;;;15.50;53.60;;;;;;4949479;28;87196;-42
2023/10/10 08:18:41;;;;;;;;;;;15.50;53.60;;;;;;4948219;28;87304;-43
2023/10/10 08:21:13;;;;;;;;;;;15.50;53.60;;;;;;4954193;28;87032;-45
2023/10/10 08:23:42;;;;;;;;;;;15.50;53.60;;;;;;4951624;28;89885;-42
2023/10/10 08:26:17;;;;;;;;;;;15.50;53.70;;;;;;4950530;28;88316;-42
2023/10/10 08:28:47;;;;;;;;;;;15.50;53.90;;;;;;4951418;28;89955;-46
2023/10/10 08:31:15;;;;;;;;;;;15.50;53.80;;;;;;4948197;28;87821;-45
2023/10/10 08:33:46;;;;;;;;;;;15.50;53.80;;;;;;4947436;28;87556;-43
2023/10/10 08:36:23;;;;;;;;;;;15.50;53.90;;;;;;4950548;28;89741;-46
2023/10/10 08:38:59;;;;;;;;;;;15.50;54.60;;;;;;4950387;28;89537;-45
2023/10/10 08:41:26;;;;;;;;;;;15.50;54.00;;;;;;4953720;28;87087;-43
2023/10/10 08:43:58;;;;;;;;;;;15.50;54.00;;;;;;4957990;28;88780;-46
2023/10/10 08:46:29;;;;;;;;;;;15.50;54.10;;;;;;4954291;28;87135;-45
2023/10/10 08:48:59;;;;;;;;;;;15.50;54.00;;;;;;4953922;28;87462;-46
2023/10/10 08:51:34;;;;;;;;;;;15.50;54.10;;;;;;4952594;28;90466;-45
2023/10/10 08:54:09;;;;;;;;;;;15.50;54.10;;;;;;4959297;28;88242;-44
2023/10/10 08:57:02;;;;;;;;;;;15.40;54.20;;;;;;4956321;28;88797;-47
2023/10/10 08:59:31;;;;;;;;;;;15.50;54.30;;;;;;4953979;28;88174;-42
2023/10/10 09:02:23;;;;;;;;;;;15.50;54.30;;;;;;4953906;28;88342;-45
2023/10/10 09:04:50;;;;;;;;;;;15.50;54.30;;;;;;4955187;28;89310;-46
2023/10/10 09:07:27;;;;;;;;;;;15.50;54.40;;;;;;4959102;28;89445;-46
2023/10/10 09:10:06;;;;;;;;;;;15.50;54.40;;;;;;4955215;28;88872;-42
2023/10/10 09:12:52;;;;;;;;;;;15.50;54.40;;;;;;4955957;28;89230;-46
2023/10/10 09:15:18;;;;;;;;;;;15.50;54.40;;;;;;4956306;28;87156;-44
2023/10/10 09:17:45;;;;;;;;;;;15.50;54.50;;;;;;4953924;28;88048;-47
2023/10/10 09:20:23;;;;;;;;;;;15.50;54.50;;;;;;4953071;28;88290;-48
2023/10/10 09:22:51;;;;;;;;;;;15.50;54.60;;;;;;4955163;28;87443;-43
2023/10/10 09:25:22;;;;;;;;;;;15.50;54.40;;;;;;4953195;28;87506;-46
2023/10/10 09:27:58;;;;;;;;;;;15.50;54.20;;;;;;4953415;28;89708;-44
2023/10/10 09:30:31;;;;;;;;;;;15.50;54.40;;;;;;4953831;28;87810;-46
2023/10/10 09:33:02;;;;;;;;;;;15.50;54.60;;;;;;4955564;28;89425;-45
2023/10/10 09:35:28;;;;;;;;;;;15.50;54.60;;;;;;4954912;28;86431;-44
2023/10/10 09:37:54;;;;;;;;;;;15.50;54.50;;;;;;4954571;28;87144;-45
2023/10/10 09:40:20;;;;;;;;;;;15.50;54.50;;;;;;4953641;28;89408;-43
2023/10/10 09:46:10;;;;;;;;;;;15.50;55.00;;;;;;4951131;28;88374;-43
2023/10/10 09:52:49;;;;;;;;;;;15.50;54.80;;;;;;4955476;28;87173;-45
2023/10/10 09:54:16;;;;;;;;;;;15.50;54.90;;;;;;4945112;28;87462;-44
2023/10/10 09:56:46;;;;;;;;;;;15.50;55.10;;;;;;4952679;28;87252;-49
2023/10/10 09:59:13;;;;;;;;;;;15.50;55.30;;;;;;4952650;28;88749;-45
2023/10/10 10:01:45;;;;;;;;;;;15.50;55.10;;;;;;4955866;28;87295;-47
2023/10/10 10:04:18;;;;;;;;;;;15.50;55.30;;;;;;4954580;28;87734;-44
2023/10/10 10:06:58;;;;;;;;;;;15.50;55.20;;;;;;4955879;28;87472;-46
2023/10/10 10:09:32;;;;;;;;;;;15.60;55.40;;;;;;4954551;28;89097;-45
2023/10/10 10:12:22;;;;;;;;;;;15.50;55.70;;;;;;4954908;28;87449;-44
2023/10/10 10:14:59;;;;;;;;;;;15.60;55.90;;;;;;4957637;28;88750;-46
2023/10/10 10:17:30;;;;;;;;;;;15.60;55.60;;;;;;4952653;28;87064;-45
2023/10/10 10:20:20;;;;;;;;;;;15.60;55.60;;;;;;4954680;28;88989;-48
2023/10/10 10:22:48;;;;;;;;;;;15.60;55.70;;;;;;4954174;28;88428;-43
2023/10/10 10:25:28;;;;;;;;;;;15.60;55.50;;;;;;4953975;28;87193;-50
2023/10/10 10:28:01;;;;;;;;;;;15.60;55.90;;;;;;4952084;28;89062;-44
2023/10/10 10:32:58;;;;;;;;;;;15.60;55.80;;;;;;4951710;28;87159;-44
2023/10/10 10:35:47;;;;;;;;;;;15.60;56.00;;;;;;4949667;28;88838;-48
2023/10/10 10:38:13;;;;;;;;;;;15.70;55.80;;;;;;4946749;28;88054;-43
2023/10/10 10:43:15;;;;;;;;;;;15.70;56.00;;;;;;4953095;28;87958;-45
2023/10/10 10:45:44;;;;;;;;;;;15.70;56.00;;;;;;4948617;28;88282;-47
2023/10/10 10:48:29;;;;;;;;;;;15.70;56.70;;;;;;4953349;28;89004;-46
2023/10/10 10:51:22;;;;;;;;;;;15.70;56.40;;;;;;4951159;28;90048;-45
2023/10/10 10:53:52;;;;;;;;;;;15.70;56.40;;;;;;4947783;28;86503;-44
2023/10/10 11:01:21;;;;;;;;;;;15.70;56.30;;;;;;4954240;28;88172;-46
2023/10/10 11:03:51;;;;;;;;;;;15.70;56.80;;;;;;4951879;28;88020;-41
2023/10/10 11:06:20;;;;;;;;;;;15.80;56.40;;;;;;4955224;28;87109;-44
2023/10/10 11:11:27;;;;;;;;;;;15.80;56.30;;;;;;4952241;28;87938;-48
2023/10/10 11:16:46;;;;;;;;;;;15.80;56.50;;;;;;4951135;28;87375;-48
2023/10/10 11:21:53;;;;;;;;;;;15.80;56.30;;;;;;4945962;28;88179;-48
2023/10/10 11:24:23;;;;;;;;;;;15.80;56.70;;;;;;4960048;28;88491;-46
2023/10/10 11:32:25;;;;;;;;;;;15.90;56.60;;;;;;4949586;28;88437;-44
2023/10/10 11:34:52;;;;;;;;;;;15.80;56.40;;;;;;4953610;28;87209;-45
2023/10/10 11:37:23;;;;;;;;;;;15.80;56.40;;;;;;4952508;28;87351;-46
2023/10/10 11:39:52;;;;;;;;;;;15.90;56.40;;;;;;4952135;28;89684;-43
2023/10/10 11:42:28;;;;;;;;;;;15.90;56.60;;;;;;4955763;28;87446;-47
2023/10/10 11:45:04;;;;;;;;;;;15.80;56.50;;;;;;4955091;28;87732;-45
2023/10/10 11:47:30;;;;;;;;;;;15.80;56.90;;;;;;4949153;28;87070;-44
2023/10/10 11:50:00;;;;;;;;;;;15.80;56.70;;;;;;4949181;28;88842;-45
2023/10/10 11:52:28;;;;;;;;;;;15.90;56.50;;;;;;4951459;28;90672;-45
2023/10/10 11:54:55;;;;;;;;;;;15.90;56.50;;;;;;4953025;28;86997;-45
2023/10/10 11:57:21;;;;;;;;;;;15.90;56.60;;;;;;4953168;28;87644;-45
2023/10/10 11:59:47;;;;;;;;;;;15.80;56.70;;;;;;4947178;28;88150;-46
2023/10/10 12:02:18;;;;;;;;;;;15.80;56.70;;;;;;4954861;28;87078;-42
2023/10/10 12:04:47;;;;;;;;;;;15.90;56.90;;;;;;4951846;28;89068;-44
2023/10/10 12:07:14;;;;;;;;;;;15.90;56.70;;;;;;4952680;28;89453;-48
2023/10/10 12:09:44;;;;;;;;;;;15.90;56.60;;;;;;4950278;28;88824;-49
2023/10/10 12:12:10;;;;;;;;;;;15.90;56.70;;;;;;4952568;28;88060;-45
2023/10/10 12:14:36;;;;;;;;;;;15.90;56.60;;;;;;4955081;28;87397;-48
2023/10/10 12:17:05;;;;;;;;;;;15.90;56.60;;;;;;4953173;28;88105;-46
2023/10/10 12:19:36;;;;;;;;;;;16.00;56.80;;;;;;4956188;28;89363;-48
2023/10/10 12:22:07;;;;;;;;;;;15.90;56.90;;;;;;4953276;28;87002;-45
2023/10/10 12:24:34;;;;;;;;;;;16.00;57.00;;;;;;4957825;28;87418;-42
2023/10/10 12:26:59;;;;;;;;;;;15.90;56.80;;;;;;4947147;28;88176;-44
2023/10/10 12:29:25;;;;;;;;;;;16.00;56.80;;;;;;4960607;28;88481;-45
2023/10/10 12:31:55;;;;;;;;;;;16.00;56.60;;;;;;4953495;28;88032;-45
2023/10/10 12:34:24;;;;;;;;;;;16.00;56.80;;;;;;4953444;28;87027;-47
2023/10/10 12:36:59;;;;;;;;;;;16.00;56.70;;;;;;4955407;28;87174;-46
2023/10/10 12:39:27;;;;;;;;;;;15.90;56.70;;;;;;4956868;28;87423;-46
2023/10/10 12:41:56;;;;;;;;;;;16.00;56.80;;;;;;4953241;28;88015;-47
2023/10/10 12:44:23;;;;;;;;;;;16.00;57.00;;;;;;4953201;28;89662;-47
2023/10/10 12:46:49;;;;;;;;;;;16.00;57.00;;;;;;4957420;28;89644;-47
2023/10/10 12:49:17;;;;;;;;;;;15.90;56.90;;;;;;4954226;28;87128;-46
2023/10/10 12:51:45;;;;;;;;;;;16.00;57.10;;;;;;4957133;28;87385;-46
2023/10/10 12:54:13;;;;;;;;;;;16.00;57.00;;;;;;4951189;28;88810;-46
2023/10/10 12:56:48;;;;;;;;;;;16.00;56.90;;;;;;4956557;28;89118;-45
2023/10/10 12:59:18;;;;;;;;;;;16.00;57.30;;;;;;4954019;28;87371;-43
2023/10/10 13:01:44;;;;;;;;;;;16.00;56.80;;;;;;4955972;28;88384;-43
2023/10/10 13:04:11;;;;;;;;;;;16.00;57.20;;;;;;4952245;28;87532;-49
2023/10/10 13:06:39;;;;;;;;;;;16.00;57.10;;;;;;4954011;28;90540;-42
2023/10/10 13:09:05;;;;;;;;;;;16.00;57.00;;;;;;4955522;28;86988;-47
2023/10/10 13:11:36;;;;;;;;;;;16.00;57.20;;;;;;4953412;28;87196;-45
2023/10/10 13:14:14;;;;;;;;;;;16.10;57.60;;;;;;4953525;28;88025;-44
2023/10/10 13:19:11;;;;;;;;;;;16.00;57.60;;;;;;4955782;28;87989;-46
2023/10/10 13:21:37;;;;;;;;;;;16.00;57.70;;;;;;4951898;28;87659;-51
2023/10/10 13:24:09;;;;;;;;;;;16.10;57.50;;;;;;4947842;28;87365;-45
2023/10/10 13:26:36;;;;;;;;;;;16.10;57.50;;;;;;4955615;28;87164;-46
2023/10/10 13:29:02;;;;;;;;;;;16.10;57.50;;;;;;4955281;28;87351;-48
2023/10/10 13:31:29;;;;;;;;;;;16.10;57.60;;;;;;4953247;28;88569;-45
2023/10/10 13:33:54;;;;;;;;;;;16.10;57.70;;;;;;4951978;28;88362;-45
2023/10/10 13:36:20;;;;;;;;;;;16.10;57.60;;;;;;4957987;28;87141;-45
2023/10/10 13:38:47;;;;;;;;;;;16.10;57.30;;;;;;4953745;28;88490;-46
2023/10/10 13:41:22;;;;;;;;;;;16.00;57.50;;;;;;4953150;28;89067;-45
2023/10/10 13:43:49;;;;;;;;;;;16.10;57.70;;;;;;4958979;28;88814;-44
2023/10/10 13:46:16;;;;;;;;;;;16.10;57.80;;;;;;4953347;28;88292;-42
2023/10/10 13:48:41;;;;;;;;;;;16.10;57.90;;;;;;4954222;28;86433;-49
2023/10/10 13:51:07;;;;;;;;;;;16.10;57.80;;;;;;4951201;28;88100;-43
2023/10/10 13:53:39;;;;;;;;;;;16.10;57.80;;;;;;4955229;28;91097;-44
2023/10/10 13:56:04;;;;;;;;;;;16.10;57.70;;;;;;4955054;28;87969;-47
2023/10/10 13:58:30;;;;;;;;;;;16.10;57.90;;;;;;4954573;28;89886;-48
2023/10/10 14:01:15;;;;;;;;;;;16.10;58.00;;;;;;4951953;28;87106;-48
2023/10/10 14:03:45;;;;;;;;;;;16.10;57.80;;;;;;4955034;28;87392;-44
2023/10/10 14:06:16;;;;;;;;;;;16.10;57.60;;;;;;4953297;28;89372;-44
2023/10/10 14:08:44;;;;;;;;;;;16.10;57.60;;;;;;4953061;28;87111;-45
2023/10/10 14:11:20;;;;;;;;;;;16.10;57.70;;;;;;4951548;28;87482;-48
2023/10/10 14:13:49;;;;;;;;;;;16.10;57.80;;;;;;4955083;28;87810;-43
2023/10/10 14:16:16;;;;;;;;;;;16.10;57.80;;;;;;4955263;28;87097;-42
2023/10/10 14:18:49;;;;;;;;;;;16.10;58.00;;;;;;4953634;28;89643;-45
2023/10/10 14:21:16;;;;;;;;;;;16.20;57.90;;;;;;4956272;28;88723;-44
2023/10/10 14:23:44;;;;;;;;;;;16.10;57.90;;;;;;4953254;28;88425;-44
2023/10/10 14:26:13;;;;;;;;;;;16.10;57.90;;;;;;4953297;28;89478;-46
2023/10/10 14:28:41;;;;;;;;;;;16.10;58.00;;;;;;4950928;28;87387;-47
2023/10/10 14:31:12;;;;;;;;;;;16.10;57.80;;;;;;4950486;28;88813;-43
2023/10/10 14:33:39;;;;;;;;;;;16.10;58.70;;;;;;4953414;28;88040;-44
2023/10/10 14:36:05;;;;;;;;;;;16.10;57.90;;;;;;4954292;28;87945;-43
2023/10/10 14:38:31;;;;;;;;;;;16.10;58.00;;;;;;4953809;28;87566;-45
2023/10/10 14:40:57;;;;;;;;;;;16.10;57.90;;;;;;4955058;28;88664;-45
2023/10/10 14:43:23;;;;;;;;;;;16.20;58.10;;;;;;4954151;28;87263;-45
2023/10/10 14:45:48;;;;;;;;;;;16.10;58.00;;;;;;4951740;28;89085;-45
2023/10/10 14:48:20;;;;;;;;;;;16.10;58.00;;;;;;4951917;28;87767;-43
2023/10/10 14:50:52;;;;;;;;;;;16.20;58.00;;;;;;4957483;28;87748;-46
2023/10/10 14:53:24;;;;;;;;;;;16.10;57.90;;;;;;4952142;28;88337;-51
2023/10/10 14:55:53;;;;;;;;;;;16.20;58.00;;;;;;4949861;28;87130;-48
2023/10/10 14:58:21;;;;;;;;;;;16.20;58.00;;;;;;4946579;28;87113;-46
2023/10/10 15:00:49;;;;;;;;;;;16.20;58.00;;;;;;4953664;28;90112;-45
2023/10/10 15:03:15;;;;;;;;;;;16.20;58.00;;;;;;4954824;28;86447;-45
2023/10/10 15:05:50;;;;;;;;;;;16.20;57.80;;;;;;4951818;28;89470;-45
2023/10/10 15:08:19;;;;;;;;;;;16.20;57.90;;;;;;4957728;28;87138;-45
2023/10/10 15:10:45;;;;;;;;;;;16.20;58.10;;;;;;4951337;28;87978;-44
2023/10/10 15:13:19;;;;;;;;;;;16.20;58.00;;;;;;4954947;28;88309;-45
2023/10/10 15:15:45;;;;;;;;;;;16.20;58.10;;;;;;4950497;28;88194;-44
2023/10/10 15:18:12;;;;;;;;;;;16.20;58.00;;;;;;4956592;28;89443;-44
2023/10/10 15:20:43;;;;;;;;;;;16.20;57.90;;;;;;4950760;28;89501;-46
2023/10/10 15:23:08;;;;;;;;;;;16.20;58.00;;;;;;4951466;28;88284;-42
2023/10/10 15:25:34;;;;;;;;;;;16.20;58.00;;;;;;4954236;28;87984;-44
2023/10/10 15:27:59;;;;;;;;;;;16.20;57.90;;;;;;4955941;28;86607;-43
2023/10/10 15:30:25;;;;;;;;;;;16.20;58.00;;;;;;4951565;28;87135;-44
2023/10/10 15:32:56;;;;;;;;;;;16.20;57.90;;;;;;4950905;28;88182;-48
2023/10/10 15:35:23;;;;;;;;;;;16.20;58.10;;;;;;4953486;28;89198;-46
2023/10/10 15:37:49;;;;;;;;;;;16.20;58.10;;;;;;4953635;28;89749;-42
2023/10/10 15:40:21;;;;;;;;;;;16.30;58.20;;;;;;4952606;28;89696;-45
2023/10/10 15:42:51;;;;;;;;;;;16.30;58.00;;;;;;4953908;28;87113;-44
2023/10/10 15:45:20;;;;;;;;;;;16.20;58.00;;;;;;4951700;28;87416;-44
2023/10/10 15:47:48;;;;;;;;;;;16.30;58.00;;;;;;4954855;28;88065;-43
2023/10/10 15:50:16;;;;;;;;;;;16.30;58.00;;;;;;4956302;28;88847;-46
2023/10/10 15:52:48;;;;;;;;;;;16.30;58.00;;;;;;4954230;28;88452;-48
2023/10/10 15:55:23;;;;;;;;;;;16.30;57.90;;;;;;4956456;28;87094;-48
2023/10/10 15:57:52;;;;;;;;;;;16.30;57.90;;;;;;4956909;28;87539;-47
2023/10/10 16:00:21;;;;;;;;;;;16.30;57.80;;;;;;4953233;28;90413;-44
2023/10/10 16:02:52;;;;;;;;;;;16.30;57.80;;;;;;4958376;28;87147;-47
2023/10/10 16:05:22;;;;;;;;;;;16.30;57.90;;;;;;4955192;28;88814;-42
2023/10/10 16:07:48;;;;;;;;;;;16.30;57.80;;;;;;4959909;28;89542;-43
2023/10/10 16:10:15;;;;;;;;;;;16.30;57.80;;;;;;4954429;28;88047;-44
2023/10/10 16:12:43;;;;;;;;;;;16.30;57.70;;;;;;4955609;28;88121;-43
2023/10/10 16:15:18;;;;;;;;;;;16.30;57.70;;;;;;4960945;28;87393;-46
2023/10/10 16:17:47;;;;;;;;;;;16.30;57.80;;;;;;4957806;28;87723;-44
2023/10/10 16:20:13;;;;;;;;;;;16.30;57.70;;;;;;4956566;28;88135;-43
2023/10/10 16:22:40;;;;;;;;;;;16.30;57.70;;;;;;4959100;28;88138;-42
2023/10/10 16:25:07;;;;;;;;;;;16.30;57.70;;;;;;4954489;28;88871;-46
2023/10/10 16:27:32;;;;;;;;;;;16.30;57.70;;;;;;4957110;28;89292;-47
2023/10/10 16:29:58;;;;;;;;;;;16.30;57.70;;;;;;4963458;28;87211;-43
2023/10/10 16:32:24;;;;;;;;;;;16.30;57.70;;;;;;4955990;28;89258;-44
2023/10/10 16:34:49;;;;;;;;;;;16.30;57.70;;;;;;4954977;28;87125;-48
2023/10/10 16:37:17;;;;;;;;;;;16.30;57.70;;;;;;4956406;28;87095;-46
2023/10/10 16:39:46;;;;;;;;;;;16.30;57.70;;;;;;4953956;28;88075;-46
2023/10/10 16:42:12;;;;;;;;;;;16.30;57.60;;;;;;4953952;28;86780;-46
2023/10/10 16:44:37;;;;;;;;;;;16.30;57.70;;;;;;4954008;28;86998;-47
2023/10/10 16:47:03;;;;;;;;;;;16.30;57.60;;;;;;4954353;28;88050;-43
2023/10/10 16:49:29;;;;;;;;;;;16.30;57.70;;;;;;4955566;28;88106;-44
2023/10/10 16:51:55;;;;;;;;;;;16.30;57.60;;;;;;4956114;28;88330;-45
2023/10/10 16:54:20;;;;;;;;;;;16.30;57.70;;;;;;4954085;28;87212;-43
2023/10/10 16:56:46;;;;;;;;;;;16.40;57.60;;;;;;4954547;28;87201;-47
2023/10/10 16:59:12;;;;;;;;;;;16.30;57.60;;;;;;4954003;28;87955;-46
2023/10/10 17:01:38;;;;;;;;;;;16.30;57.70;;;;;;4954498;28;87983;-45
2023/10/10 17:04:03;;;;;;;;;;;16.30;57.70;;;;;;4956266;28;87404;-46
2023/10/10 17:06:31;;;;;;;;;;;16.30;57.60;;;;;;4954021;28;87287;-47
2023/10/10 17:08:59;;;;;;;;;;;16.30;57.60;;;;;;4955394;28;87096;-46
2023/10/10 17:11:25;;;;;;;;;;;16.30;57.60;;;;;;4953710;28;87689;-45
2023/10/10 17:13:53;;;;;;;;;;;16.30;57.60;;;;;;4957795;28;89122;-43
2023/10/10 17:16:28;;;;;;;;;;;16.30;57.60;;;;;;4951884;28;89671;-51
2023/10/10 17:18:54;;;;;;;;;;;16.30;57.60;;;;;;4954341;28;87729;-46
2023/10/10 17:21:20;;;;;;;;;;;16.30;57.70;;;;;;4955067;28;87065;-44
2023/10/10 17:23:46;;;;;;;;;;;16.30;57.50;;;;;;4953965;28;87363;-46
2023/10/10 17:26:12;;;;;;;;;;;16.30;57.70;;;;;;4956038;28;88031;-42
2023/10/10 17:28:39;;;;;;;;;;;16.30;57.70;;;;;;4952765;28;87544;-44
2023/10/10 17:31:05;;;;;;;;;;;16.30;57.70;;;;;;4956352;28;87271;-45